createdAt,value
2017-02-08T00:00:34.234Z,19.87
2017-02-08T00:01:44.839Z,19.91
2017-02-08T00:02:55.091Z,19.87
2017-02-08T00:04:05.724Z,19.92
2017-02-08T00:05:15.987Z,19.87
2017-02-08T00:06:26.644Z,19.87
2017-02-08T00:07:37.592Z,19.88
2017-02-08T00:08:48.287Z,19.84
2017-02-08T00:09:58.925Z,19.84
2017-02-08T00:11:09.582Z,19.86
2017-02-08T00:12:19.827Z,19.83
2017-02-08T00:13:30.713Z,19.86
2017-02-08T00:14:40.962Z,19.91
2017-02-08T00:15:50.819Z,19.88
2017-02-08T00:17:01.059Z,19.83
2017-02-08T00:18:11.298Z,19.84
2017-02-08T00:19:21.786Z,19.92
2017-02-08T00:20:32.033Z,19.91
2017-02-08T00:21:42.674Z,19.84
2017-02-08T00:22:52.921Z,19.86
2017-02-08T00:24:02.791Z,19.84
2017-02-08T00:25:12.794Z,19.88
2017-02-08T00:26:22.650Z,19.8
2017-02-08T00:27:33.317Z,19.86
2017-02-08T00:28:42.774Z,19.86
2017-02-08T00:29:51.854Z,19.87
2017-02-08T00:31:02.848Z,19.78
2017-02-08T00:32:13.122Z,19.78
2017-02-08T00:33:23.003Z,19.83
2017-02-08T00:34:33.641Z,19.8
2017-02-08T00:35:43.894Z,19.81
2017-02-08T00:36:54.289Z,19.83
2017-02-08T00:38:04.912Z,19.77
2017-02-08T00:39:15.593Z,19.86
2017-02-08T00:40:25.071Z,19.84
2017-02-08T00:41:35.721Z,19.86
2017-02-08T00:42:46.227Z,19.86
2017-02-08T00:43:56.100Z,19.81
2017-02-08T00:45:06.349Z,19.87
2017-02-08T00:46:16.197Z,19.78
2017-02-08T00:47:26.821Z,19.81
2017-02-08T00:48:37.554Z,19.77
2017-02-08T00:49:47.828Z,19.84
2017-02-08T00:50:58.482Z,19.81
2017-02-08T00:52:08.348Z,19.86
2017-02-08T00:53:18.584Z,19.83
2017-02-08T00:54:29.060Z,19.86
2017-02-08T00:55:39.699Z,19.77
2017-02-08T00:56:50.360Z,19.86
2017-02-08T00:58:00.992Z,19.84
2017-02-08T00:59:11.234Z,19.87
2017-02-08T01:00:22.120Z,19.71
2017-02-08T01:01:31.579Z,19.77
2017-02-08T01:02:42.230Z,19.74
2017-02-08T01:03:52.472Z,19.83
2017-02-08T01:05:02.327Z,19.86
2017-02-08T01:06:12.298Z,19.83
2017-02-08T01:07:22.152Z,19.77
2017-02-08T01:08:32.432Z,19.84
2017-02-08T01:09:43.066Z,19.84
2017-02-08T01:10:53.591Z,19.86
2017-02-08T01:12:04.186Z,19.8
2017-02-08T01:13:14.434Z,19.71
2017-02-08T01:14:24.333Z,19.8
2017-02-08T01:15:34.574Z,19.78
2017-02-08T01:16:44.822Z,19.74
2017-02-08T01:17:55.271Z,19.83
2017-02-08T01:19:05.515Z,19.73
2017-02-08T01:20:15.762Z,19.8
2017-02-08T01:21:25.255Z,19.78
2017-02-08T01:22:35.506Z,19.74
2017-02-08T01:23:45.903Z,19.76
2017-02-08T01:24:56.553Z,19.78
2017-02-08T01:26:06.801Z,19.78
2017-02-08T01:27:17.050Z,19.81
2017-02-08T01:28:27.687Z,19.84
2017-02-08T01:29:38.466Z,19.71
2017-02-08T01:30:49.099Z,19.77
2017-02-08T01:31:59.347Z,19.8
2017-02-08T01:33:09.201Z,19.78
2017-02-08T01:34:19.834Z,19.83
2017-02-08T01:35:30.779Z,19.74
2017-02-08T01:36:40.230Z,19.76
2017-02-08T01:37:50.861Z,19.76
2017-02-08T01:39:01.487Z,19.77
2017-02-08T01:40:10.962Z,19.76
2017-02-08T01:41:21.159Z,19.73
2017-02-08T01:42:31.787Z,19.8
2017-02-08T01:43:42.025Z,19.8
2017-02-08T01:44:51.879Z,19.84
2017-02-08T01:46:02.502Z,19.78
2017-02-08T01:47:13.378Z,19.73
2017-02-08T01:48:23.630Z,19.81
2017-02-08T01:49:34.277Z,19.76
2017-02-08T01:50:44.900Z,19.74
2017-02-08T01:51:55.533Z,19.84
2017-02-08T01:53:05.885Z,19.74
2017-02-08T01:54:15.743Z,19.81
2017-02-08T01:55:25.602Z,19.77
2017-02-08T01:56:36.245Z,19.76
2017-02-08T01:57:47.173Z,19.76
2017-02-08T01:58:57.510Z,19.77
2017-02-08T02:00:07.362Z,19.73
2017-02-08T02:01:17.246Z,19.8
2017-02-08T02:02:27.882Z,19.81
2017-02-08T02:03:38.135Z,19.73
2017-02-08T02:04:49.113Z,19.73
2017-02-08T02:05:59.355Z,19.71
2017-02-08T02:07:08.838Z,19.76
2017-02-08T02:08:19.473Z,19.74
2017-02-08T02:09:30.112Z,19.77
2017-02-08T02:10:41.102Z,19.71
2017-02-08T02:11:50.970Z,19.76
2017-02-08T02:13:01.206Z,19.74
2017-02-08T02:14:11.824Z,19.76
2017-02-08T02:15:21.292Z,19.71
2017-02-08T02:16:31.883Z,19.71
2017-02-08T02:17:41.725Z,19.74
2017-02-08T02:18:52.358Z,19.77
2017-02-08T02:20:02.981Z,19.78
2017-02-08T02:21:13.226Z,19.78
2017-02-08T02:22:23.719Z,19.74
2017-02-08T02:23:34.364Z,19.77
2017-02-08T02:24:44.600Z,19.73
2017-02-08T02:25:54.840Z,19.73
2017-02-08T02:27:05.470Z,19.71
2017-02-08T02:28:15.415Z,19.69
2017-02-08T02:29:25.689Z,19.73
2017-02-08T02:30:35.930Z,19.74
2017-02-08T02:31:46.172Z,19.76
2017-02-08T02:32:56.414Z,19.71
2017-02-08T02:34:07.303Z,19.76
2017-02-08T02:35:17.555Z,19.74
2017-02-08T02:36:27.403Z,19.71
2017-02-08T02:37:37.658Z,19.69
2017-02-08T02:38:48.238Z,19.66
2017-02-08T02:39:59.192Z,19.66
2017-02-08T02:41:09.451Z,19.73
2017-02-08T02:42:19.687Z,19.69
2017-02-08T02:43:30.326Z,19.76
2017-02-08T02:44:40.976Z,19.73
2017-02-08T02:45:51.546Z,19.63
2017-02-08T02:47:01.784Z,19.74
2017-02-08T02:48:12.030Z,19.68
2017-02-08T02:49:21.889Z,19.73
2017-02-08T02:50:31.753Z,19.61
2017-02-08T02:51:41.517Z,19.65
2017-02-08T02:52:52.145Z,19.62
2017-02-08T02:54:01.621Z,19.71
2017-02-08T02:55:12.256Z,19.63
2017-02-08T02:56:22.505Z,19.69
2017-02-08T02:57:32.471Z,19.63
2017-02-08T02:58:42.338Z,19.71
2017-02-08T02:59:52.575Z,19.63
2017-02-08T03:01:03.210Z,19.62
2017-02-08T03:02:13.846Z,19.71
2017-02-08T03:03:24.433Z,19.69
2017-02-08T03:04:35.088Z,19.66
2017-02-08T03:05:45.357Z,19.63
2017-02-08T03:06:55.222Z,19.66
2017-02-08T03:08:05.900Z,19.68
2017-02-08T03:09:16.484Z,19.65
2017-02-08T03:10:26.735Z,19.63
2017-02-08T03:11:36.981Z,19.66
2017-02-08T03:12:47.627Z,19.62
2017-02-08T03:13:58.263Z,19.69
2017-02-08T03:15:09.217Z,19.66
2017-02-08T03:16:19.879Z,19.71
2017-02-08T03:17:30.516Z,19.69
2017-02-08T03:18:40.369Z,19.66
2017-02-08T03:19:50.610Z,19.66
2017-02-08T03:21:01.536Z,19.65
2017-02-08T03:22:11.832Z,19.65
2017-02-08T03:23:22.460Z,19.68
2017-02-08T03:24:31.571Z,19.63
2017-02-08T03:25:41.449Z,19.66
2017-02-08T03:26:52.381Z,19.68
2017-02-08T03:28:02.631Z,19.65
2017-02-08T03:29:12.876Z,19.63
2017-02-08T03:30:23.500Z,19.61
2017-02-08T03:31:34.126Z,19.65
2017-02-08T03:32:45.051Z,19.65
2017-02-08T03:33:55.679Z,19.69
2017-02-08T03:35:06.307Z,19.63
2017-02-08T03:36:15.779Z,19.63
2017-02-08T03:37:26.412Z,19.65
2017-02-08T03:38:37.007Z,19.63
2017-02-08T03:39:46.912Z,19.63
2017-02-08T03:40:57.537Z,19.66
2017-02-08T03:42:07.440Z,19.66
2017-02-08T03:43:17.683Z,19.65
2017-02-08T03:44:27.686Z,19.65
2017-02-08T03:45:37.930Z,19.66
2017-02-08T03:46:47.785Z,19.65
2017-02-08T03:47:58.413Z,19.69
2017-02-08T03:49:09.083Z,19.66
2017-02-08T03:50:20.009Z,19.73
2017-02-08T03:51:30.644Z,19.62
2017-02-08T03:52:40.882Z,19.73
2017-02-08T03:53:51.124Z,19.65
2017-02-08T03:55:01.781Z,19.66
2017-02-08T03:56:12.519Z,19.71
2017-02-08T03:57:23.146Z,19.66
2017-02-08T03:58:33.009Z,19.65
2017-02-08T03:59:43.256Z,19.65
2017-02-08T04:00:53.490Z,19.69
2017-02-08T04:02:03.997Z,19.65
2017-02-08T04:03:13.849Z,19.69
2017-02-08T04:04:24.490Z,19.73
2017-02-08T04:05:35.124Z,19.73
2017-02-08T04:06:45.380Z,19.68
2017-02-08T04:07:56.377Z,19.71
2017-02-08T04:09:06.625Z,19.69
2017-02-08T04:10:16.872Z,19.56
2017-02-08T04:11:26.728Z,19.65
2017-02-08T04:12:37.318Z,19.65
2017-02-08T04:13:48.200Z,19.65
2017-02-08T04:14:58.046Z,19.58
2017-02-08T04:16:07.931Z,19.65
2017-02-08T04:17:17.786Z,19.65
2017-02-08T04:18:28.420Z,19.63
2017-02-08T04:19:39.304Z,19.66
2017-02-08T04:20:49.155Z,19.66
2017-02-08T04:21:59.002Z,19.63
2017-02-08T04:23:09.252Z,19.71
2017-02-08T04:24:19.105Z,19.61
2017-02-08T04:25:29.990Z,19.71
2017-02-08T04:26:40.259Z,19.59
2017-02-08T04:27:50.494Z,19.62
2017-02-08T04:29:00.745Z,19.76
2017-02-08T04:30:11.366Z,19.65
2017-02-08T04:31:21.364Z,19.65
2017-02-08T04:32:30.817Z,19.65
2017-02-08T04:33:41.454Z,19.66
2017-02-08T04:34:51.686Z,19.73
2017-02-08T04:36:01.537Z,19.63
2017-02-08T04:37:12.270Z,19.68
2017-02-08T04:38:21.732Z,19.66
2017-02-08T04:39:31.972Z,19.58
2017-02-08T04:40:42.602Z,19.66
2017-02-08T04:41:52.846Z,19.58
2017-02-08T04:43:03.395Z,19.59
2017-02-08T04:44:13.651Z,19.58
2017-02-08T04:45:24.278Z,19.62
2017-02-08T04:46:34.137Z,19.68
2017-02-08T04:47:44.770Z,19.69
2017-02-08T04:48:54.977Z,19.62
2017-02-08T04:50:05.628Z,19.61
2017-02-08T04:51:16.257Z,19.59
2017-02-08T04:52:26.895Z,19.63
2017-02-08T04:53:37.161Z,19.56
2017-02-08T04:54:47.952Z,19.59
2017-02-08T04:55:58.204Z,19.62
2017-02-08T04:57:08.837Z,19.56
2017-02-08T04:58:19.475Z,19.63
2017-02-08T04:59:30.135Z,19.66
2017-02-08T05:00:41.111Z,19.56
2017-02-08T05:01:51.747Z,19.54
2017-02-08T05:03:01.993Z,19.61
2017-02-08T05:04:12.246Z,19.59
2017-02-08T05:05:22.137Z,19.59
2017-02-08T05:06:32.729Z,19.62
2017-02-08T05:07:43.371Z,19.54
2017-02-08T05:08:53.627Z,19.62
2017-02-08T05:10:04.258Z,19.58
2017-02-08T05:11:14.511Z,19.56
2017-02-08T05:12:24.899Z,19.56
2017-02-08T05:13:34.748Z,19.59
2017-02-08T05:14:45.373Z,19.56
2017-02-08T05:15:56.009Z,19.56
2017-02-08T05:17:05.866Z,19.55
2017-02-08T05:18:15.584Z,19.58
2017-02-08T05:19:26.217Z,19.61
2017-02-08T05:20:36.853Z,19.54
2017-02-08T05:21:47.099Z,19.59
2017-02-08T05:22:57.339Z,19.61
2017-02-08T05:24:08.207Z,19.58
2017-02-08T05:25:18.059Z,19.56
2017-02-08T05:26:28.717Z,19.61
2017-02-08T05:27:39.363Z,19.55
2017-02-08T05:28:49.596Z,19.63
2017-02-08T05:30:00.579Z,19.63
2017-02-08T05:31:11.211Z,19.54
2017-02-08T05:32:20.671Z,19.58
2017-02-08T05:33:30.943Z,19.59
2017-02-08T05:34:40.855Z,19.63
2017-02-08T05:35:51.064Z,19.65
2017-02-08T05:37:01.311Z,19.68
2017-02-08T05:38:11.555Z,19.71
2017-02-08T05:39:22.050Z,19.68
2017-02-08T05:40:32.307Z,19.73
2017-02-08T05:41:43.298Z,19.76
2017-02-08T05:42:53.542Z,19.81
2017-02-08T05:44:03.013Z,19.88
2017-02-08T05:45:12.860Z,19.94
2017-02-08T05:46:23.103Z,19.95
2017-02-08T05:47:33.690Z,20.03
2017-02-08T05:48:44.324Z,20.14
2017-02-08T05:49:54.570Z,20.18
2017-02-08T05:51:05.200Z,20.21
2017-02-08T05:52:15.444Z,20.14
2017-02-08T05:53:25.941Z,20.36
2017-02-08T05:54:36.593Z,20.32
2017-02-08T05:55:47.235Z,20.51
2017-02-08T05:56:57.102Z,20.36
2017-02-08T05:58:07.339Z,20.51
2017-02-08T05:59:18.253Z,20.64
2017-02-08T06:00:28.897Z,20.64
2017-02-08T06:01:39.152Z,20.69
2017-02-08T06:02:49.431Z,20.77
2017-02-08T06:04:00.162Z,20.67
2017-02-08T06:05:10.878Z,20.76
2017-02-08T06:06:21.117Z,20.8
2017-02-08T06:07:30.995Z,20.79
2017-02-08T06:08:41.639Z,20.8
2017-02-08T06:09:51.500Z,20.91
2017-02-08T06:11:02.292Z,20.92
2017-02-08T06:12:12.924Z,20.98
2017-02-08T06:13:23.572Z,20.95
2017-02-08T06:14:34.207Z,20.99
2017-02-08T06:15:44.451Z,21.07
2017-02-08T06:16:54.463Z,21.09
2017-02-08T06:18:04.723Z,21.14
2017-02-08T06:19:15.359Z,21.12
2017-02-08T06:20:25.602Z,21.17
2017-02-08T06:21:35.842Z,21.19
2017-02-08T06:22:46.729Z,21.21
2017-02-08T06:23:56.980Z,21.32
2017-02-08T06:25:06.839Z,21.25
2017-02-08T06:26:16.700Z,21.24
2017-02-08T06:27:26.942Z,21.29
2017-02-08T06:28:37.923Z,21.34
2017-02-08T06:29:48.177Z,21.43
2017-02-08T06:30:58.033Z,21.37
2017-02-08T06:32:08.687Z,21.46
2017-02-08T06:33:19.318Z,21.43
2017-02-08T06:34:30.060Z,21.44
2017-02-08T06:35:40.698Z,21.54
2017-02-08T06:36:51.320Z,21.5
2017-02-08T06:38:01.164Z,21.54
2017-02-08T06:39:11.412Z,21.54
2017-02-08T06:40:22.193Z,21.59
2017-02-08T06:41:32.043Z,21.61
2017-02-08T06:42:41.907Z,21.59
2017-02-08T06:43:52.148Z,21.64
2017-02-08T06:45:02.821Z,21.64
2017-02-08T06:46:13.444Z,21.68
2017-02-08T06:47:24.095Z,21.74
2017-02-08T06:48:34.346Z,21.77
2017-02-08T06:49:44.648Z,21.79
2017-02-08T06:50:55.289Z,21.75
2017-02-08T06:52:06.672Z,21.8
2017-02-08T06:53:16.522Z,21.83
2017-02-08T06:54:27.153Z,21.8
2017-02-08T06:55:37.009Z,21.75
2017-02-08T06:56:46.910Z,21.82
2017-02-08T06:57:57.017Z,21.92
2017-02-08T06:59:07.268Z,21.98
2017-02-08T07:00:17.515Z,21.92
2017-02-08T07:01:27.773Z,21.91
2017-02-08T07:02:38.422Z,21.84
2017-02-08T07:03:49.022Z,21.99
2017-02-08T07:04:59.654Z,21.99
2017-02-08T07:06:09.941Z,22
2017-02-08T07:07:20.183Z,21.98
2017-02-08T07:08:30.431Z,21.98
2017-02-08T07:09:41.021Z,21.99
2017-02-08T07:10:50.891Z,21.96
2017-02-08T07:12:01.533Z,22.1
2017-02-08T07:13:12.229Z,22.03
2017-02-08T07:14:22.467Z,22.05
2017-02-08T07:15:33.243Z,22.06
2017-02-08T07:16:43.487Z,22.06
2017-02-08T07:17:53.341Z,22.17
2017-02-08T07:19:03.960Z,22.17
2017-02-08T07:20:14.116Z,22.21
2017-02-08T07:21:24.600Z,22.2
2017-02-08T07:22:34.898Z,22.25
2017-02-08T07:23:45.178Z,22.18
2017-02-08T07:24:55.440Z,22.25
2017-02-08T07:26:06.132Z,22.24
2017-02-08T07:27:16.927Z,22.27
2017-02-08T07:28:26.781Z,22.27
2017-02-08T07:29:37.415Z,22.25
2017-02-08T07:30:47.298Z,22.27
2017-02-08T07:31:57.555Z,22.33
2017-02-08T07:33:08.589Z,22.28
2017-02-08T07:34:18.841Z,22.33
2017-02-08T07:35:29.126Z,22.25
2017-02-08T07:36:39.374Z,22.24
2017-02-08T07:37:50.065Z,22.3
2017-02-08T07:39:00.346Z,22.24
2017-02-08T07:40:10.590Z,22.22
2017-02-08T07:41:21.531Z,22.24
2017-02-08T07:42:32.171Z,22.27
2017-02-08T07:43:42.791Z,22.22
2017-02-08T07:44:53.448Z,22.2
2017-02-08T07:46:03.751Z,22.15
2017-02-08T07:47:14.399Z,22.2
2017-02-08T07:48:24.260Z,22.3
2017-02-08T07:49:35.798Z,22.22
2017-02-08T07:50:46.575Z,22.22
2017-02-08T07:51:57.249Z,22.22
2017-02-08T07:53:07.498Z,22.25
2017-02-08T07:54:18.520Z,22.24
2017-02-08T07:55:28.765Z,22.25
2017-02-08T07:56:38.638Z,22.21
2017-02-08T07:57:49.278Z,22.2
2017-02-08T07:58:59.531Z,22.2
2017-02-08T08:00:09.739Z,22.2
2017-02-08T08:01:19.604Z,22.21
2017-02-08T08:02:29.492Z,22.18
2017-02-08T08:03:40.118Z,22.14
2017-02-08T08:04:50.364Z,22.17
2017-02-08T08:06:01.319Z,22.17
2017-02-08T08:07:11.953Z,22.06
2017-02-08T08:08:22.583Z,22.14
2017-02-08T08:09:32.455Z,22.1
2017-02-08T08:10:43.087Z,22.05
2017-02-08T08:11:53.685Z,21.99
2017-02-08T08:13:03.927Z,21.99
2017-02-08T08:14:13.796Z,22.03
2017-02-08T08:15:24.428Z,21.91
2017-02-08T08:16:34.674Z,21.94
2017-02-08T08:17:45.374Z,21.96
2017-02-08T08:18:56.007Z,22
2017-02-08T08:20:05.476Z,22
2017-02-08T08:21:15.325Z,21.99
2017-02-08T08:22:25.181Z,21.91
2017-02-08T08:23:34.813Z,21.86
2017-02-08T08:24:45.451Z,21.92
2017-02-08T08:25:56.092Z,21.86
2017-02-08T08:27:07.073Z,21.72
2017-02-08T08:28:16.975Z,21.77
2017-02-08T08:29:27.972Z,21.83
2017-02-08T08:30:38.256Z,21.77
2017-02-08T08:31:48.904Z,21.71
2017-02-08T08:32:59.167Z,21.71
2017-02-08T08:34:09.037Z,21.67
2017-02-08T08:35:19.592Z,21.71
2017-02-08T08:36:29.458Z,21.69
2017-02-08T08:37:39.338Z,21.59
2017-02-08T08:38:49.583Z,21.62
2017-02-08T08:39:59.447Z,21.56
2017-02-08T08:41:09.849Z,21.52
2017-02-08T08:42:20.186Z,21.59
2017-02-08T08:43:29.884Z,21.44
2017-02-08T08:44:40.222Z,21.44
2017-02-08T08:45:50.479Z,21.46
2017-02-08T08:47:00.493Z,21.42
2017-02-08T08:48:11.131Z,21.4
2017-02-08T08:49:21.004Z,21.47
2017-02-08T08:50:30.892Z,21.4
2017-02-08T08:51:41.140Z,21.47
2017-02-08T08:52:50.773Z,21.42
2017-02-08T08:54:01.400Z,21.34
2017-02-08T08:55:11.253Z,21.32
2017-02-08T08:56:21.884Z,21.29
2017-02-08T08:57:31.401Z,21.28
2017-02-08T08:58:41.943Z,21.22
2017-02-08T08:59:52.206Z,21.25
2017-02-08T09:01:02.836Z,21.22
2017-02-08T09:02:13.082Z,21.21
2017-02-08T09:03:23.353Z,21.25
2017-02-08T09:04:33.849Z,21.21
2017-02-08T09:05:44.529Z,21.13
2017-02-08T09:06:54.392Z,21.1
2017-02-08T09:08:05.033Z,21.16
2017-02-08T09:09:14.493Z,21.13
2017-02-08T09:10:24.262Z,21.14
2017-02-08T09:11:34.517Z,21.09
2017-02-08T09:12:45.159Z,21.21
2017-02-08T09:13:55.042Z,21.13
2017-02-08T09:15:05.288Z,21.06
2017-02-08T09:16:16.170Z,21.1
2017-02-08T09:17:26.416Z,21.06
2017-02-08T09:18:35.896Z,21.04
2017-02-08T09:19:46.152Z,21.1
2017-02-08T09:20:56.781Z,21.12
2017-02-08T09:22:07.713Z,21.01
2017-02-08T09:23:18.350Z,21.04
2017-02-08T09:24:28.596Z,20.92
2017-02-08T09:25:39.274Z,20.95
2017-02-08T09:26:49.929Z,20.97
2017-02-08T09:28:01.270Z,20.94
2017-02-08T09:29:11.926Z,20.95
2017-02-08T09:30:22.566Z,20.94
2017-02-08T09:31:32.828Z,20.97
2017-02-08T09:32:43.487Z,20.97
2017-02-08T09:33:53.533Z,20.97
2017-02-08T09:35:04.164Z,20.94
2017-02-08T09:36:14.410Z,21.01
2017-02-08T09:37:25.049Z,20.94
2017-02-08T09:38:35.697Z,20.92
2017-02-08T09:39:46.292Z,20.94
2017-02-08T09:40:56.151Z,20.91
2017-02-08T09:42:06.394Z,20.98
2017-02-08T09:43:17.028Z,20.95
2017-02-08T09:44:27.271Z,20.89
2017-02-08T09:45:37.818Z,20.92
2017-02-08T09:46:47.669Z,20.94
2017-02-08T09:47:57.918Z,20.92
2017-02-08T09:49:08.564Z,20.94
2017-02-08T09:50:18.812Z,20.92
2017-02-08T09:51:29.819Z,20.94
2017-02-08T09:52:40.476Z,20.97
2017-02-08T09:53:50.333Z,20.94
2017-02-08T09:55:00.978Z,20.94
2017-02-08T09:56:11.215Z,20.95
2017-02-08T09:57:22.140Z,20.89
2017-02-08T09:58:32.401Z,20.89
2017-02-08T09:59:43.045Z,20.92
2017-02-08T10:00:53.364Z,20.94
2017-02-08T10:02:04.002Z,20.91
2017-02-08T10:03:14.595Z,20.92
2017-02-08T10:04:24.895Z,20.97
2017-02-08T10:05:35.533Z,20.88
2017-02-08T10:06:46.179Z,20.94
2017-02-08T10:07:56.819Z,20.94
2017-02-08T10:09:07.708Z,20.92
2017-02-08T10:10:18.352Z,20.8
2017-02-08T10:11:29.002Z,20.89
2017-02-08T10:12:39.635Z,20.92
2017-02-08T10:13:50.267Z,20.94
2017-02-08T10:15:00.312Z,20.92
2017-02-08T10:16:10.948Z,20.88
2017-02-08T10:17:21.583Z,20.92
2017-02-08T10:18:32.233Z,20.89
2017-02-08T10:19:42.870Z,20.88
2017-02-08T10:20:52.595Z,20.94
2017-02-08T10:22:02.832Z,20.95
2017-02-08T10:23:13.466Z,20.95
2017-02-08T10:24:24.106Z,20.92
2017-02-08T10:25:33.585Z,20.91
2017-02-08T10:26:44.561Z,20.89
2017-02-08T10:27:54.826Z,20.91
2017-02-08T10:29:05.487Z,20.8
2017-02-08T10:30:15.343Z,20.91
2017-02-08T10:31:25.594Z,20.94
2017-02-08T10:32:35.608Z,20.89
2017-02-08T10:33:46.241Z,20.92
2017-02-08T10:34:56.115Z,20.89
2017-02-08T10:36:06.763Z,20.97
2017-02-08T10:37:17.024Z,20.89
2017-02-08T10:38:27.755Z,20.95
2017-02-08T10:39:37.631Z,20.91
2017-02-08T10:40:48.312Z,20.94
2017-02-08T10:41:57.799Z,20.97
2017-02-08T10:43:08.061Z,20.95
2017-02-08T10:44:17.686Z,20.92
2017-02-08T10:45:27.542Z,20.92
2017-02-08T10:46:38.175Z,20.97
2017-02-08T10:47:48.833Z,20.99
2017-02-08T10:48:59.085Z,20.94
2017-02-08T10:50:09.660Z,20.92
2017-02-08T10:51:19.935Z,20.95
2017-02-08T10:52:30.571Z,20.97
2017-02-08T10:53:40.041Z,20.95
2017-02-08T10:54:50.273Z,20.92
2017-02-08T10:56:00.803Z,20.94
2017-02-08T10:57:10.668Z,20.92
2017-02-08T10:58:20.585Z,20.97
2017-02-08T10:59:30.856Z,20.95
2017-02-08T11:00:40.722Z,20.89
2017-02-08T11:01:51.470Z,20.95
2017-02-08T11:03:02.109Z,20.95
2017-02-08T11:04:12.353Z,20.89
2017-02-08T11:05:22.987Z,20.95
2017-02-08T11:06:33.636Z,20.97
2017-02-08T11:07:44.209Z,20.95
2017-02-08T11:08:54.071Z,20.98
2017-02-08T11:10:04.724Z,20.98
2017-02-08T11:11:13.823Z,20.98
2017-02-08T11:12:23.691Z,20.92
2017-02-08T11:13:34.057Z,20.92
2017-02-08T11:14:44.358Z,20.94
2017-02-08T11:15:54.901Z,20.97
2017-02-08T11:17:05.541Z,20.94
2017-02-08T11:18:16.190Z,20.95
2017-02-08T11:19:26.780Z,20.97
2017-02-08T11:20:37.056Z,20.95
2017-02-08T11:21:47.345Z,20.97
2017-02-08T11:22:57.985Z,20.95
2017-02-08T11:24:07.850Z,20.92
2017-02-08T11:25:18.352Z,20.98
2017-02-08T11:26:28.992Z,20.92
2017-02-08T11:27:39.632Z,20.99
2017-02-08T11:28:49.503Z,20.97
2017-02-08T11:30:00.149Z,20.95
2017-02-08T11:31:10.365Z,20.97
2017-02-08T11:32:20.998Z,20.98
2017-02-08T11:33:30.874Z,20.98
2017-02-08T11:34:40.761Z,20.95
2017-02-08T11:35:51.050Z,20.94
2017-02-08T11:37:01.983Z,20.94
2017-02-08T11:38:11.839Z,20.95
2017-02-08T11:39:22.100Z,20.99
2017-02-08T11:40:31.972Z,20.94
2017-02-08T11:41:42.628Z,20.94
2017-02-08T11:42:53.434Z,20.99
2017-02-08T11:44:04.082Z,20.92
2017-02-08T11:45:14.359Z,20.92
2017-02-08T11:46:24.217Z,20.92
2017-02-08T11:47:34.472Z,20.92
2017-02-08T11:48:44.291Z,20.92
2017-02-08T11:49:54.930Z,20.97
2017-02-08T11:51:05.171Z,20.89
2017-02-08T11:52:16.113Z,20.89
2017-02-08T11:53:26.379Z,20.82
2017-02-08T11:54:37.161Z,20.94
2017-02-08T11:55:47.415Z,20.92
2017-02-08T11:56:58.068Z,20.89
2017-02-08T11:58:07.947Z,20.84
2017-02-08T11:59:18.189Z,20.82
2017-02-08T12:00:28.694Z,20.84
2017-02-08T12:01:38.947Z,20.85
2017-02-08T12:02:49.227Z,20.89
2017-02-08T12:03:59.892Z,20.88
2017-02-08T12:05:09.772Z,20.82
2017-02-08T12:06:19.998Z,20.91
2017-02-08T12:07:29.886Z,20.88
2017-02-08T12:08:40.522Z,20.84
2017-02-08T12:09:51.178Z,20.84
2017-02-08T12:11:01.853Z,20.85
2017-02-08T12:12:11.710Z,20.85
2017-02-08T12:13:21.993Z,20.84
2017-02-08T12:14:32.628Z,20.87
2017-02-08T12:15:42.889Z,20.87
2017-02-08T12:16:53.221Z,20.84
2017-02-08T12:18:03.821Z,20.85
2017-02-08T12:19:13.304Z,20.88
2017-02-08T12:20:23.206Z,20.88
2017-02-08T12:21:33.461Z,20.85
2017-02-08T12:22:43.342Z,20.84
2017-02-08T12:23:54.097Z,20.88
2017-02-08T12:25:04.759Z,20.84
2017-02-08T12:26:14.633Z,20.84
2017-02-08T12:27:24.913Z,20.88
2017-02-08T12:28:35.170Z,20.84
2017-02-08T12:29:45.237Z,20.82
2017-02-08T12:30:55.895Z,20.88
2017-02-08T12:32:05.355Z,20.82
2017-02-08T12:33:15.625Z,20.87
2017-02-08T12:34:25.889Z,20.8
2017-02-08T12:35:36.314Z,20.82
2017-02-08T12:36:46.961Z,20.85
2017-02-08T12:37:57.195Z,20.87
2017-02-08T12:39:07.062Z,20.73
2017-02-08T12:40:17.319Z,20.91
2017-02-08T12:41:27.881Z,20.88
2017-02-08T12:42:38.119Z,20.87
2017-02-08T12:43:48.379Z,20.85
2017-02-08T12:44:59.020Z,20.84
2017-02-08T12:46:08.902Z,20.91
2017-02-08T12:47:19.787Z,20.8
2017-02-08T12:48:30.053Z,20.8
2017-02-08T12:49:40.298Z,20.85
2017-02-08T12:50:50.535Z,20.77
2017-02-08T12:52:00.418Z,20.89
2017-02-08T12:53:11.360Z,20.77
2017-02-08T12:54:21.640Z,20.84
2017-02-08T12:55:31.136Z,20.82
2017-02-08T12:56:41.410Z,20.77
2017-02-08T12:57:51.659Z,20.74
2017-02-08T12:59:02.431Z,20.82
2017-02-08T13:00:12.680Z,20.77
2017-02-08T13:01:22.184Z,20.74
2017-02-08T13:02:32.074Z,20.87
2017-02-08T13:03:42.746Z,20.77
2017-02-08T13:04:53.648Z,20.8
2017-02-08T13:06:03.897Z,20.79
2017-02-08T13:07:14.153Z,20.77
2017-02-08T13:08:24.780Z,20.8
2017-02-08T13:09:35.456Z,20.79
2017-02-08T13:10:45.962Z,20.82
2017-02-08T13:11:56.614Z,20.84
2017-02-08T13:13:06.506Z,20.88
2017-02-08T13:14:16.752Z,20.79
2017-02-08T13:15:27.474Z,20.79
2017-02-08T13:16:38.076Z,20.8
2017-02-08T13:17:48.368Z,20.73
2017-02-08T13:18:59.036Z,20.88
2017-02-08T13:20:09.709Z,20.79
2017-02-08T13:21:20.363Z,20.85
2017-02-08T13:22:30.932Z,20.8
2017-02-08T13:23:41.563Z,20.84
2017-02-08T13:24:52.213Z,20.88
2017-02-08T13:26:02.870Z,20.8
2017-02-08T13:27:12.752Z,20.74
2017-02-08T13:28:23.311Z,20.73
2017-02-08T13:29:33.557Z,20.8
2017-02-08T13:30:43.423Z,20.91
2017-02-08T13:31:53.670Z,20.74
2017-02-08T13:33:04.342Z,20.87
2017-02-08T13:34:15.286Z,20.82
2017-02-08T13:35:25.562Z,20.8
2017-02-08T13:36:36.218Z,20.8
2017-02-08T13:37:46.476Z,20.79
2017-02-08T13:38:57.110Z,20.85
2017-02-08T13:40:07.858Z,20.76
2017-02-08T13:41:18.409Z,20.8
2017-02-08T13:42:28.698Z,20.8
2017-02-08T13:43:38.977Z,20.73
2017-02-08T13:44:49.227Z,20.82
2017-02-08T13:45:59.974Z,20.73
2017-02-08T13:47:10.230Z,20.8
2017-02-08T13:48:20.474Z,20.85
2017-02-08T13:49:30.335Z,20.77
2017-02-08T13:50:40.187Z,20.8
2017-02-08T13:51:50.433Z,20.8
2017-02-08T13:53:00.697Z,20.79
2017-02-08T13:54:11.363Z,20.73
2017-02-08T13:55:21.999Z,20.84
2017-02-08T13:56:32.285Z,20.79
2017-02-08T13:57:42.436Z,20.76
2017-02-08T13:58:52.299Z,20.77
2017-02-08T14:00:02.551Z,20.79
2017-02-08T14:01:12.797Z,20.73
2017-02-08T14:02:23.471Z,20.76
2017-02-08T14:03:33.678Z,20.76
2017-02-08T14:04:43.163Z,20.79
2017-02-08T14:05:53.817Z,20.8
2017-02-08T14:07:04.478Z,20.74
2017-02-08T14:08:15.141Z,20.74
2017-02-08T14:09:26.028Z,20.8
2017-02-08T14:10:36.274Z,20.66
2017-02-08T14:11:46.906Z,20.69
2017-02-08T14:12:57.539Z,20.72
2017-02-08T14:14:08.186Z,20.73
2017-02-08T14:15:18.387Z,20.82
2017-02-08T14:16:29.321Z,20.67
2017-02-08T14:17:38.420Z,20.76
2017-02-08T14:18:48.667Z,20.7
2017-02-08T14:19:59.329Z,20.84
2017-02-08T14:21:10.316Z,20.67
2017-02-08T14:22:20.965Z,20.67
2017-02-08T14:23:31.619Z,20.7
2017-02-08T14:24:41.911Z,20.66
2017-02-08T14:25:52.571Z,20.69
2017-02-08T14:27:03.069Z,20.67
2017-02-08T14:28:12.931Z,20.69
2017-02-08T14:29:22.795Z,20.64
2017-02-08T14:30:32.927Z,20.67
2017-02-08T14:31:43.214Z,20.69
2017-02-08T19:01:47.099Z,19.96
2017-02-08T19:02:57.375Z,19.95
2017-02-08T19:04:07.622Z,19.98
2017-02-08T19:05:17.101Z,19.98
2017-02-08T19:06:27.731Z,19.98
2017-02-08T19:07:38.121Z,19.98
2017-02-08T19:08:48.365Z,19.99
2017-02-08T19:09:59.010Z,19.96
2017-02-08T19:11:08.898Z,20.03
2017-02-08T19:12:19.567Z,19.98
2017-02-08T19:13:29.548Z,20.1
2017-02-08T19:14:40.205Z,20.06
2017-02-08T19:15:50.454Z,19.99
2017-02-08T19:17:00.699Z,20.1
2017-02-08T19:18:11.339Z,19.96
2017-02-08T19:19:21.748Z,20.06
2017-02-08T19:20:32.410Z,20.02
2017-02-08T19:21:43.049Z,20.1
2017-02-08T19:22:52.533Z,20.1
2017-02-08T19:24:03.173Z,20.08
2017-02-08T19:25:13.721Z,20.06
2017-02-08T19:26:23.976Z,20.08
2017-02-08T19:27:34.239Z,20.1
2017-02-08T19:28:44.488Z,20.03
2017-02-08T19:29:55.122Z,20.03
2017-02-08T19:31:05.344Z,20.02
2017-02-08T19:32:15.602Z,20.05
2017-02-08T19:33:25.843Z,20.01
2017-02-08T19:34:36.106Z,20.01
2017-02-08T19:35:46.745Z,20.1
2017-02-08T19:36:57.289Z,20.08